sensor_id;sensor_type;location;lat;lon;timestamp;temperature;humidity
41427;DHT22;27171;51.812;19.514;2023-03-09T00:01:32;1.20;99.90
41427;DHT22;27171;51.812;19.514;2023-03-09T00:04:33;1.10;99.90
41427;DHT22;27171;51.812;19.514;2023-03-09T00:07:34;1.10;99.90
41427;DHT22;27171;51.812;19.514;2023-03-09T00:10:39;1.10;99.90
41427;DHT22;27171;51.812;19.514;2023-03-09T00:13:41;1.10;99.90
41427;DHT22;27171;51.812;19.514;2023-03-09T00:16:42;1.00;99.90
41427;DHT22;27171;51.812;19.514;2023-03-09T00:19:43;1.00;99.90
41427;DHT22;27171;51.812;19.514;2023-03-09T00:22:49;1.00;99.90
41427;DHT22;27171;51.812;19.514;2023-03-09T00:25:50;1.00;99.90
41427;DHT22;27171;51.812;19.514;2023-03-09T00:28:51;1.00;99.90
41427;DHT22;27171;51.812;19.514;2023-03-09T00:31:53;1.00;99.90
41427;DHT22;27171;51.812;19.514;2023-03-09T00:34:54;1.00;99.90
41427;DHT22;27171;51.812;19.514;2023-03-09T00:37:55;1.00;99.90
41427;DHT22;27171;51.812;19.514;2023-03-09T00:40:56;1.00;99.90
41427;DHT22;27171;51.812;19.514;2023-03-09T00:44:01;1.00;99.90
41427;DHT22;27171;51.812;19.514;2023-03-09T00:47:03;1.00;99.90
41427;DHT22;27171;51.812;19.514;2023-03-09T00:50:05;1.00;99.90
41427;DHT22;27171;51.812;19.514;2023-03-09T00:53:07;1.00;99.90
41427;DHT22;27171;51.812;19.514;2023-03-09T00:56:12;1.00;99.90
41427;DHT22;27171;51.812;19.514;2023-03-09T00:59:15;1.00;99.90
41427;DHT22;27171;51.812;19.514;2023-03-09T01:02:15;1.00;99.90
41427;DHT22;27171;51.812;19.514;2023-03-09T01:05:18;1.00;99.90
41427;DHT22;27171;51.812;19.514;2023-03-09T01:08:19;0.90;99.90
41427;DHT22;27171;51.812;19.514;2023-03-09T01:11:20;0.90;99.90
41427;DHT22;27171;51.812;19.514;2023-03-09T01:14:22;0.90;99.90
41427;DHT22;27171;51.812;19.514;2023-03-09T01:17:24;0.80;99.90
41427;DHT22;27171;51.812;19.514;2023-03-09T01:20:25;0.80;99.90
41427;DHT22;27171;51.812;19.514;2023-03-09T01:23:27;0.80;99.90
41427;DHT22;27171;51.812;19.514;2023-03-09T01:26:28;0.70;99.90
41427;DHT22;27171;51.812;19.514;2023-03-09T01:29:29;0.70;99.90
41427;DHT22;27171;51.812;19.514;2023-03-09T01:32:31;0.70;99.90
41427;DHT22;27171;51.812;19.514;2023-03-09T01:35:32;0.70;99.90
41427;DHT22;27171;51.812;19.514;2023-03-09T01:38:36;0.70;99.90
41427;DHT22;27171;51.812;19.514;2023-03-09T01:41:37;0.70;99.90
41427;DHT22;27171;51.812;19.514;2023-03-09T01:44:38;0.60;99.90
41427;DHT22;27171;51.812;19.514;2023-03-09T01:47:39;0.60;99.90
41427;DHT22;27171;51.812;19.514;2023-03-09T01:50:41;0.60;99.90
41427;DHT22;27171;51.812;19.514;2023-03-09T01:53:43;0.60;99.90
41427;DHT22;27171;51.812;19.514;2023-03-09T01:56:45;0.60;99.90
41427;DHT22;27171;51.812;19.514;2023-03-09T01:59:50;0.60;99.90
41427;DHT22;27171;51.812;19.514;2023-03-09T02:03:07;0.60;99.90
41427;DHT22;27171;51.812;19.514;2023-03-09T02:06:11;0.70;99.90
41427;DHT22;27171;51.812;19.514;2023-03-09T02:12:34;0.60;99.90
41427;DHT22;27171;51.812;19.514;2023-03-09T02:15:35;0.60;99.90
41427;DHT22;27171;51.812;19.514;2023-03-09T02:18:36;0.60;99.90
41427;DHT22;27171;51.812;19.514;2023-03-09T02:21:49;0.50;99.90
41427;DHT22;27171;51.812;19.514;2023-03-09T02:27:56;0.50;99.90
41427;DHT22;27171;51.812;19.514;2023-03-09T02:30:58;0.50;99.90
41427;DHT22;27171;51.812;19.514;2023-03-09T02:34:00;0.50;99.90
41427;DHT22;27171;51.812;19.514;2023-03-09T02:37:01;0.50;99.90
41427;DHT22;27171;51.812;19.514;2023-03-09T02:40:16;0.50;99.90
41427;DHT22;27171;51.812;19.514;2023-03-09T02:43:23;0.50;99.90
41427;DHT22;27171;51.812;19.514;2023-03-09T02:46:26;0.50;99.90
41427;DHT22;27171;51.812;19.514;2023-03-09T02:49:27;0.50;99.90
41427;DHT22;27171;51.812;19.514;2023-03-09T02:52:28;0.50;99.90
41427;DHT22;27171;51.812;19.514;2023-03-09T02:55:30;0.50;99.90
41427;DHT22;27171;51.812;19.514;2023-03-09T02:58:31;0.50;99.90
41427;DHT22;27171;51.812;19.514;2023-03-09T03:01:33;0.50;99.90
41427;DHT22;27171;51.812;19.514;2023-03-09T03:04:34;0.50;99.90
41427;DHT22;27171;51.812;19.514;2023-03-09T03:07:35;0.50;99.90
41427;DHT22;27171;51.812;19.514;2023-03-09T03:10:36;0.50;99.90
41427;DHT22;27171;51.812;19.514;2023-03-09T03:13:38;0.50;99.90
41427;DHT22;27171;51.812;19.514;2023-03-09T03:16:42;0.50;99.90
41427;DHT22;27171;51.812;19.514;2023-03-09T03:19:43;0.50;99.90
41427;DHT22;27171;51.812;19.514;2023-03-09T03:22:45;0.50;99.90
41427;DHT22;27171;51.812;19.514;2023-03-09T03:25:47;0.50;99.90
41427;DHT22;27171;51.812;19.514;2023-03-09T03:28:49;0.50;99.90
41427;DHT22;27171;51.812;19.514;2023-03-09T03:31:56;0.50;99.90
41427;DHT22;27171;51.812;19.514;2023-03-09T03:34:59;0.50;99.90
41427;DHT22;27171;51.812;19.514;2023-03-09T03:38:01;0.50;99.90
41427;DHT22;27171;51.812;19.514;2023-03-09T03:41:04;0.50;99.90
41427;DHT22;27171;51.812;19.514;2023-03-09T03:44:07;0.50;99.90
41427;DHT22;27171;51.812;19.514;2023-03-09T03:47:10;0.50;99.90
41427;DHT22;27171;51.812;19.514;2023-03-09T03:50:11;0.50;99.90
41427;DHT22;27171;51.812;19.514;2023-03-09T03:53:21;0.50;99.90
41427;DHT22;27171;51.812;19.514;2023-03-09T03:56:23;0.40;99.90
41427;DHT22;27171;51.812;19.514;2023-03-09T03:59:25;0.40;99.90
41427;DHT22;27171;51.812;19.514;2023-03-09T04:02:26;0.50;99.90
41427;DHT22;27171;51.812;19.514;2023-03-09T04:05:28;0.40;99.90
41427;DHT22;27171;51.812;19.514;2023-03-09T04:08:30;0.40;99.90
41427;DHT22;27171;51.812;19.514;2023-03-09T04:11:32;0.40;99.90
41427;DHT22;27171;51.812;19.514;2023-03-09T04:14:34;0.40;99.90
41427;DHT22;27171;51.812;19.514;2023-03-09T04:17:37;0.40;99.90
41427;DHT22;27171;51.812;19.514;2023-03-09T04:20:40;0.40;99.90
41427;DHT22;27171;51.812;19.514;2023-03-09T04:23:42;0.40;99.90
41427;DHT22;27171;51.812;19.514;2023-03-09T04:26:45;0.40;99.90
41427;DHT22;27171;51.812;19.514;2023-03-09T04:30:00;0.40;99.90
41427;DHT22;27171;51.812;19.514;2023-03-09T04:33:05;0.40;99.90
41427;DHT22;27171;51.812;19.514;2023-03-09T04:36:11;0.40;99.90
41427;DHT22;27171;51.812;19.514;2023-03-09T04:39:13;0.40;99.90
41427;DHT22;27171;51.812;19.514;2023-03-09T04:42:14;0.30;99.90
41427;DHT22;27171;51.812;19.514;2023-03-09T04:45:17;0.30;99.90
41427;DHT22;27171;51.812;19.514;2023-03-09T04:48:20;0.30;99.90
41427;DHT22;27171;51.812;19.514;2023-03-09T04:51:22;0.30;99.90
41427;DHT22;27171;51.812;19.514;2023-03-09T04:54:26;0.30;99.90
41427;DHT22;27171;51.812;19.514;2023-03-09T04:57:27;0.30;99.90
41427;DHT22;27171;51.812;19.514;2023-03-09T05:00:30;0.30;99.90
41427;DHT22;27171;51.812;19.514;2023-03-09T05:03:32;0.30;99.90
41427;DHT22;27171;51.812;19.514;2023-03-09T05:06:33;0.30;99.90
41427;DHT22;27171;51.812;19.514;2023-03-09T05:09:34;0.30;99.90
41427;DHT22;27171;51.812;19.514;2023-03-09T05:12:36;0.30;99.90
41427;DHT22;27171;51.812;19.514;2023-03-09T05:15:41;0.30;99.90
41427;DHT22;27171;51.812;19.514;2023-03-09T05:18:43;0.30;99.90
41427;DHT22;27171;51.812;19.514;2023-03-09T05:21:45;0.30;99.90
41427;DHT22;27171;51.812;19.514;2023-03-09T05:24:49;0.30;99.90
41427;DHT22;27171;51.812;19.514;2023-03-09T05:27:52;0.30;99.90
41427;DHT22;27171;51.812;19.514;2023-03-09T05:30:54;0.30;99.90
41427;DHT22;27171;51.812;19.514;2023-03-09T05:33:55;0.30;99.90
41427;DHT22;27171;51.812;19.514;2023-03-09T05:36:56;0.30;99.90
41427;DHT22;27171;51.812;19.514;2023-03-09T05:40:00;0.30;99.90
41427;DHT22;27171;51.812;19.514;2023-03-09T05:43:02;0.30;99.90
41427;DHT22;27171;51.812;19.514;2023-03-09T05:46:05;0.40;99.90
41427;DHT22;27171;51.812;19.514;2023-03-09T05:49:07;0.40;99.90
41427;DHT22;27171;51.812;19.514;2023-03-09T05:52:08;0.40;99.90
41427;DHT22;27171;51.812;19.514;2023-03-09T05:55:12;0.50;99.90
41427;DHT22;27171;51.812;19.514;2023-03-09T05:58:16;0.50;99.90
41427;DHT22;27171;51.812;19.514;2023-03-09T06:01:20;0.50;99.90
41427;DHT22;27171;51.812;19.514;2023-03-09T06:04:22;0.50;99.90
41427;DHT22;27171;51.812;19.514;2023-03-09T06:07:30;0.50;99.90
41427;DHT22;27171;51.812;19.514;2023-03-09T06:10:31;0.50;99.90
41427;DHT22;27171;51.812;19.514;2023-03-09T06:13:33;0.50;99.90
41427;DHT22;27171;51.812;19.514;2023-03-09T06:16:36;0.50;99.90
41427;DHT22;27171;51.812;19.514;2023-03-09T06:19:37;0.60;99.90
41427;DHT22;27171;51.812;19.514;2023-03-09T06:22:39;0.60;99.90
41427;DHT22;27171;51.812;19.514;2023-03-09T06:25:42;0.50;99.90
41427;DHT22;27171;51.812;19.514;2023-03-09T06:28:45;0.60;99.90
41427;DHT22;27171;51.812;19.514;2023-03-09T06:31:47;0.60;99.90
41427;DHT22;27171;51.812;19.514;2023-03-09T06:34:48;0.70;99.90
41427;DHT22;27171;51.812;19.514;2023-03-09T06:37:52;0.70;99.90
41427;DHT22;27171;51.812;19.514;2023-03-09T06:40:54;0.70;99.90
41427;DHT22;27171;51.812;19.514;2023-03-09T06:43:56;0.70;99.90
41427;DHT22;27171;51.812;19.514;2023-03-09T06:46:59;0.70;99.90
41427;DHT22;27171;51.812;19.514;2023-03-09T06:50:03;0.70;99.90
41427;DHT22;27171;51.812;19.514;2023-03-09T06:53:06;0.70;99.90
41427;DHT22;27171;51.812;19.514;2023-03-09T06:56:08;0.70;99.90
41427;DHT22;27171;51.812;19.514;2023-03-09T06:59:09;0.80;99.90
41427;DHT22;27171;51.812;19.514;2023-03-09T07:02:13;0.80;99.90
41427;DHT22;27171;51.812;19.514;2023-03-09T07:05:14;0.80;99.90
41427;DHT22;27171;51.812;19.514;2023-03-09T07:08:15;0.80;99.90
41427;DHT22;27171;51.812;19.514;2023-03-09T07:11:16;0.90;99.90
41427;DHT22;27171;51.812;19.514;2023-03-09T07:14:17;0.90;99.90
41427;DHT22;27171;51.812;19.514;2023-03-09T07:17:18;1.00;99.90
41427;DHT22;27171;51.812;19.514;2023-03-09T07:20:19;1.00;99.90
41427;DHT22;27171;51.812;19.514;2023-03-09T07:23:20;1.10;99.90
41427;DHT22;27171;51.812;19.514;2023-03-09T07:26:21;1.10;99.90
41427;DHT22;27171;51.812;19.514;2023-03-09T07:29:22;1.10;99.90
41427;DHT22;27171;51.812;19.514;2023-03-09T07:32:23;1.20;99.90
41427;DHT22;27171;51.812;19.514;2023-03-09T07:35:25;1.20;99.90
41427;DHT22;27171;51.812;19.514;2023-03-09T07:38:26;1.20;99.90
41427;DHT22;27171;51.812;19.514;2023-03-09T07:41:27;1.20;99.90
41427;DHT22;27171;51.812;19.514;2023-03-09T07:44:28;1.20;99.90
41427;DHT22;27171;51.812;19.514;2023-03-09T07:47:29;1.20;99.90
41427;DHT22;27171;51.812;19.514;2023-03-09T07:50:30;1.20;99.90
41427;DHT22;27171;51.812;19.514;2023-03-09T07:53:33;1.20;99.90
41427;DHT22;27171;51.812;19.514;2023-03-09T07:56:34;1.30;99.90
41427;DHT22;27171;51.812;19.514;2023-03-09T07:59:35;1.20;99.90
41427;DHT22;27171;51.812;19.514;2023-03-09T08:02:37;1.20;99.90
41427;DHT22;27171;51.812;19.514;2023-03-09T08:05:40;1.20;99.90
41427;DHT22;27171;51.812;19.514;2023-03-09T08:08:41;1.20;99.90
41427;DHT22;27171;51.812;19.514;2023-03-09T08:11:43;1.20;99.90
41427;DHT22;27171;51.812;19.514;2023-03-09T08:14:44;1.20;99.90
41427;DHT22;27171;51.812;19.514;2023-03-09T08:17:45;1.20;99.90
41427;DHT22;27171;51.812;19.514;2023-03-09T08:20:46;1.20;99.90
41427;DHT22;27171;51.812;19.514;2023-03-09T08:23:47;1.20;99.90
41427;DHT22;27171;51.812;19.514;2023-03-09T08:26:48;1.20;99.90
41427;DHT22;27171;51.812;19.514;2023-03-09T08:29:49;1.20;99.90
41427;DHT22;27171;51.812;19.514;2023-03-09T08:32:51;1.10;99.90
41427;DHT22;27171;51.812;19.514;2023-03-09T08:35:52;1.10;99.90
41427;DHT22;27171;51.812;19.514;2023-03-09T08:38:53;1.10;99.90
41427;DHT22;27171;51.812;19.514;2023-03-09T08:41:54;1.20;99.90
41427;DHT22;27171;51.812;19.514;2023-03-09T08:44:56;1.20;99.90
41427;DHT22;27171;51.812;19.514;2023-03-09T08:47:57;1.30;99.90
41427;DHT22;27171;51.812;19.514;2023-03-09T08:51:02;1.30;99.90
41427;DHT22;27171;51.812;19.514;2023-03-09T08:54:04;1.30;99.90
41427;DHT22;27171;51.812;19.514;2023-03-09T08:57:05;1.40;99.90
41427;DHT22;27171;51.812;19.514;2023-03-09T09:00:07;1.50;99.90
41427;DHT22;27171;51.812;19.514;2023-03-09T09:03:09;1.60;99.90
41427;DHT22;27171;51.812;19.514;2023-03-09T09:06:11;1.70;99.90
41427;DHT22;27171;51.812;19.514;2023-03-09T09:09:13;1.80;99.90
41427;DHT22;27171;51.812;19.514;2023-03-09T09:12:13;1.90;99.90
41427;DHT22;27171;51.812;19.514;2023-03-09T09:15:15;2.00;99.90
41427;DHT22;27171;51.812;19.514;2023-03-09T09:18:16;2.00;99.90
41427;DHT22;27171;51.812;19.514;2023-03-09T09:21:17;1.90;99.90
41427;DHT22;27171;51.812;19.514;2023-03-09T09:24:18;1.90;99.90
41427;DHT22;27171;51.812;19.514;2023-03-09T09:27:20;1.90;99.90
41427;DHT22;27171;51.812;19.514;2023-03-09T09:30:21;2.00;99.90
41427;DHT22;27171;51.812;19.514;2023-03-09T09:33:23;2.00;99.90
41427;DHT22;27171;51.812;19.514;2023-03-09T09:36:24;2.00;99.90
41427;DHT22;27171;51.812;19.514;2023-03-09T09:39:25;2.00;99.90
41427;DHT22;27171;51.812;19.514;2023-03-09T09:42:33;2.10;99.90
41427;DHT22;27171;51.812;19.514;2023-03-09T09:45:36;2.20;99.90
41427;DHT22;27171;51.812;19.514;2023-03-09T09:48:38;2.20;99.90
41427;DHT22;27171;51.812;19.514;2023-03-09T09:52:00;2.40;99.90
41427;DHT22;27171;51.812;19.514;2023-03-09T09:55:33;2.40;99.90
41427;DHT22;27171;51.812;19.514;2023-03-09T10:02:20;2.70;99.90
41427;DHT22;27171;51.812;19.514;2023-03-09T10:05:29;2.70;99.90
41427;DHT22;27171;51.812;19.514;2023-03-09T10:08:50;2.70;99.90
41427;DHT22;27171;51.812;19.514;2023-03-09T10:11:57;2.60;99.90
41427;DHT22;27171;51.812;19.514;2023-03-09T10:15:10;2.50;99.90
41427;DHT22;27171;51.812;19.514;2023-03-09T10:18:13;2.40;99.90
41427;DHT22;27171;51.812;19.514;2023-03-09T10:21:21;2.40;99.90
41427;DHT22;27171;51.812;19.514;2023-03-09T10:24:33;2.30;99.90
41427;DHT22;27171;51.812;19.514;2023-03-09T10:27:50;2.20;99.90
41427;DHT22;27171;51.812;19.514;2023-03-09T10:34:24;2.20;99.90
41427;DHT22;27171;51.812;19.514;2023-03-09T10:37:33;2.20;99.90
41427;DHT22;27171;51.812;19.514;2023-03-09T10:40:41;2.20;99.90
41427;DHT22;27171;51.812;19.514;2023-03-09T10:43:44;2.20;99.90
41427;DHT22;27171;51.812;19.514;2023-03-09T10:57:28;1.90;99.90
41427;DHT22;27171;51.812;19.514;2023-03-09T11:00:30;1.80;99.90
41427;DHT22;27171;51.812;19.514;2023-03-09T11:03:32;1.80;99.90
41427;DHT22;27171;51.812;19.514;2023-03-09T11:06:35;1.70;99.90
41427;DHT22;27171;51.812;19.514;2023-03-09T11:09:47;1.70;99.90
41427;DHT22;27171;51.812;19.514;2023-03-09T11:12:48;1.70;99.90
41427;DHT22;27171;51.812;19.514;2023-03-09T11:16:05;1.60;99.90
41427;DHT22;27171;51.812;19.514;2023-03-09T11:19:13;1.60;99.90
41427;DHT22;27171;51.812;19.514;2023-03-09T11:22:15;1.60;99.90
41427;DHT22;27171;51.812;19.514;2023-03-09T11:25:28;1.60;99.90
41427;DHT22;27171;51.812;19.514;2023-03-09T11:31:42;1.70;99.90
41427;DHT22;27171;51.812;19.514;2023-03-09T11:34:44;1.70;99.90
41427;DHT22;27171;51.812;19.514;2023-03-09T11:37:53;1.70;99.90
41427;DHT22;27171;51.812;19.514;2023-03-09T11:41:07;1.80;99.90
41427;DHT22;27171;51.812;19.514;2023-03-09T11:44:41;1.80;99.90
41427;DHT22;27171;51.812;19.514;2023-03-09T11:47:47;1.80;99.90
41427;DHT22;27171;51.812;19.514;2023-03-09T11:57:22;1.80;99.90
41427;DHT22;27171;51.812;19.514;2023-03-09T12:00:24;1.80;99.90
41427;DHT22;27171;51.812;19.514;2023-03-09T12:03:29;1.80;99.90
41427;DHT22;27171;51.812;19.514;2023-03-09T12:06:42;1.80;99.90
41427;DHT22;27171;51.812;19.514;2023-03-09T12:16:21;1.80;99.90
41427;DHT22;27171;51.812;19.514;2023-03-09T12:19:27;1.70;99.90
41427;DHT22;27171;51.812;19.514;2023-03-09T12:22:37;1.70;99.90
41427;DHT22;27171;51.812;19.514;2023-03-09T12:25:56;1.70;99.90
41427;DHT22;27171;51.812;19.514;2023-03-09T12:38:22;2.10;99.90
41427;DHT22;27171;51.812;19.514;2023-03-09T12:41:25;2.10;99.90
41427;DHT22;27171;51.812;19.514;2023-03-09T12:51:18;2.50;99.90
41427;DHT22;27171;51.812;19.514;2023-03-09T12:54:24;2.60;99.90
41427;DHT22;27171;51.812;19.514;2023-03-09T12:57:25;2.50;99.90
41427;DHT22;27171;51.812;19.514;2023-03-09T13:00:29;2.50;99.90
41427;DHT22;27171;51.812;19.514;2023-03-09T13:06:51;2.30;99.90
41427;DHT22;27171;51.812;19.514;2023-03-09T13:09:53;2.30;99.90
41427;DHT22;27171;51.812;19.514;2023-03-09T13:13:26;2.30;99.90
41427;DHT22;27171;51.812;19.514;2023-03-09T13:19:40;2.10;99.90
41427;DHT22;27171;51.812;19.514;2023-03-09T13:22:42;2.00;99.90
41427;DHT22;27171;51.812;19.514;2023-03-09T13:25:55;2.00;99.90
41427;DHT22;27171;51.812;19.514;2023-03-09T13:28:57;1.90;99.90
41427;DHT22;27171;51.812;19.514;2023-03-09T13:31:59;1.90;99.90
41427;DHT22;27171;51.812;19.514;2023-03-09T13:35:03;1.80;99.90
41427;DHT22;27171;51.812;19.514;2023-03-09T13:38:21;1.80;99.90
41427;DHT22;27171;51.812;19.514;2023-03-09T13:41:26;1.70;99.90
41427;DHT22;27171;51.812;19.514;2023-03-09T13:44:27;1.70;99.90
41427;DHT22;27171;51.812;19.514;2023-03-09T13:47:30;1.70;99.90
41427;DHT22;27171;51.812;19.514;2023-03-09T13:50:34;1.70;99.90
41427;DHT22;27171;51.812;19.514;2023-03-09T13:53:35;1.60;99.90
41427;DHT22;27171;51.812;19.514;2023-03-09T13:56:36;1.60;99.90
41427;DHT22;27171;51.812;19.514;2023-03-09T14:02:45;1.60;99.90
41427;DHT22;27171;51.812;19.514;2023-03-09T14:12:40;1.60;99.90
41427;DHT22;27171;51.812;19.514;2023-03-09T14:15:41;1.60;99.90
41427;DHT22;27171;51.812;19.514;2023-03-09T14:18:49;1.60;99.90
41427;DHT22;27171;51.812;19.514;2023-03-09T14:21:52;1.60;99.90
41427;DHT22;27171;51.812;19.514;2023-03-09T14:24:53;1.50;99.90
41427;DHT22;27171;51.812;19.514;2023-03-09T14:27:55;1.50;99.90
41427;DHT22;27171;51.812;19.514;2023-03-09T14:31:09;1.50;99.90
41427;DHT22;27171;51.812;19.514;2023-03-09T14:37:27;1.50;99.90
41427;DHT22;27171;51.812;19.514;2023-03-09T14:40:31;1.50;99.90
41427;DHT22;27171;51.812;19.514;2023-03-09T14:43:41;1.50;99.90
41427;DHT22;27171;51.812;19.514;2023-03-09T14:46:42;1.50;99.90
41427;DHT22;27171;51.812;19.514;2023-03-09T14:49:48;1.50;99.90
41427;DHT22;27171;51.812;19.514;2023-03-09T14:52:50;1.50;99.90
41427;DHT22;27171;51.812;19.514;2023-03-09T14:55:51;1.50;99.90
41427;DHT22;27171;51.812;19.514;2023-03-09T14:58:52;1.60;99.90
41427;DHT22;27171;51.812;19.514;2023-03-09T15:01:56;1.50;99.90
41427;DHT22;27171;51.812;19.514;2023-03-09T15:04:59;1.50;99.90
41427;DHT22;27171;51.812;19.514;2023-03-09T15:08:00;1.60;99.90
41427;DHT22;27171;51.812;19.514;2023-03-09T15:11:01;1.60;99.90
41427;DHT22;27171;51.812;19.514;2023-03-09T15:17:38;1.50;99.90
41427;DHT22;27171;51.812;19.514;2023-03-09T15:20:39;1.50;99.90
41427;DHT22;27171;51.812;19.514;2023-03-09T15:23:40;1.50;99.90
41427;DHT22;27171;51.812;19.514;2023-03-09T15:26:41;1.50;99.90
41427;DHT22;27171;51.812;19.514;2023-03-09T15:29:42;1.50;99.90
41427;DHT22;27171;51.812;19.514;2023-03-09T15:32:44;1.40;99.90
41427;DHT22;27171;51.812;19.514;2023-03-09T15:35:45;1.40;99.90
41427;DHT22;27171;51.812;19.514;2023-03-09T15:38:46;1.40;99.90
41427;DHT22;27171;51.812;19.514;2023-03-09T15:41:47;1.30;99.90
41427;DHT22;27171;51.812;19.514;2023-03-09T15:44:48;1.30;99.90
41427;DHT22;27171;51.812;19.514;2023-03-09T15:47:52;1.30;99.90
41427;DHT22;27171;51.812;19.514;2023-03-09T15:50:53;1.30;99.90
41427;DHT22;27171;51.812;19.514;2023-03-09T15:53:55;1.20;99.90
41427;DHT22;27171;51.812;19.514;2023-03-09T15:56:56;1.10;99.90
41427;DHT22;27171;51.812;19.514;2023-03-09T15:59:57;1.10;99.90
41427;DHT22;27171;51.812;19.514;2023-03-09T16:03:00;1.10;99.90
41427;DHT22;27171;51.812;19.514;2023-03-09T16:06:01;1.10;99.90
41427;DHT22;27171;51.812;19.514;2023-03-09T16:09:02;1.00;99.90
41427;DHT22;27171;51.812;19.514;2023-03-09T16:12:04;1.00;99.90
41427;DHT22;27171;51.812;19.514;2023-03-09T16:15:05;0.90;99.90
41427;DHT22;27171;51.812;19.514;2023-03-09T16:18:07;0.90;99.90
41427;DHT22;27171;51.812;19.514;2023-03-09T16:21:08;0.90;99.90
41427;DHT22;27171;51.812;19.514;2023-03-09T16:24:10;0.90;99.90
41427;DHT22;27171;51.812;19.514;2023-03-09T16:27:10;0.80;99.90
41427;DHT22;27171;51.812;19.514;2023-03-09T16:30:12;0.80;99.90
41427;DHT22;27171;51.812;19.514;2023-03-09T16:33:13;0.70;99.90
41427;DHT22;27171;51.812;19.514;2023-03-09T16:36:14;0.70;99.90
41427;DHT22;27171;51.812;19.514;2023-03-09T16:39:16;0.70;99.90
41427;DHT22;27171;51.812;19.514;2023-03-09T16:42:17;0.70;99.90
41427;DHT22;27171;51.812;19.514;2023-03-09T16:45:19;0.60;99.90
41427;DHT22;27171;51.812;19.514;2023-03-09T16:48:22;0.60;99.90
41427;DHT22;27171;51.812;19.514;2023-03-09T16:51:24;0.60;99.90
41427;DHT22;27171;51.812;19.514;2023-03-09T16:54:25;0.60;99.90
41427;DHT22;27171;51.812;19.514;2023-03-09T16:57:26;0.60;99.90
41427;DHT22;27171;51.812;19.514;2023-03-09T17:00:27;0.50;99.90
41427;DHT22;27171;51.812;19.514;2023-03-09T17:03:28;0.50;99.90
41427;DHT22;27171;51.812;19.514;2023-03-09T17:06:29;0.40;99.90
41427;DHT22;27171;51.812;19.514;2023-03-09T17:09:30;0.40;99.90
41427;DHT22;27171;51.812;19.514;2023-03-09T17:12:32;0.40;99.90
41427;DHT22;27171;51.812;19.514;2023-03-09T17:15:33;0.40;99.90
41427;DHT22;27171;51.812;19.514;2023-03-09T17:18:34;0.40;99.90
41427;DHT22;27171;51.812;19.514;2023-03-09T17:21:35;0.30;99.90
41427;DHT22;27171;51.812;19.514;2023-03-09T17:24:37;0.30;99.90
41427;DHT22;27171;51.812;19.514;2023-03-09T17:27:38;0.30;99.90
41427;DHT22;27171;51.812;19.514;2023-03-09T17:30:39;0.30;99.90
41427;DHT22;27171;51.812;19.514;2023-03-09T17:33:40;0.30;99.90
41427;DHT22;27171;51.812;19.514;2023-03-09T17:36:42;0.30;99.90
41427;DHT22;27171;51.812;19.514;2023-03-09T17:39:44;0.30;99.90
41427;DHT22;27171;51.812;19.514;2023-03-09T17:42:45;0.30;99.90
41427;DHT22;27171;51.812;19.514;2023-03-09T17:45:56;0.30;99.90
41427;DHT22;27171;51.812;19.514;2023-03-09T17:48:58;0.30;99.90
41427;DHT22;27171;51.812;19.514;2023-03-09T17:51:59;0.30;99.90
41427;DHT22;27171;51.812;19.514;2023-03-09T17:55:00;0.30;99.90
41427;DHT22;27171;51.812;19.514;2023-03-09T17:58:02;0.30;99.90
41427;DHT22;27171;51.812;19.514;2023-03-09T18:01:07;0.30;99.90
41427;DHT22;27171;51.812;19.514;2023-03-09T18:04:08;0.20;99.90
41427;DHT22;27171;51.812;19.514;2023-03-09T18:07:10;0.20;99.90
41427;DHT22;27171;51.812;19.514;2023-03-09T18:10:13;0.20;99.90
41427;DHT22;27171;51.812;19.514;2023-03-09T18:13:14;0.10;99.90
41427;DHT22;27171;51.812;19.514;2023-03-09T18:16:15;0.10;99.90
41427;DHT22;27171;51.812;19.514;2023-03-09T18:19:16;0.10;99.90
41427;DHT22;27171;51.812;19.514;2023-03-09T18:22:17;0.10;99.90
41427;DHT22;27171;51.812;19.514;2023-03-09T18:25:19;0.00;99.90
41427;DHT22;27171;51.812;19.514;2023-03-09T18:28:21;0.00;99.90
41427;DHT22;27171;51.812;19.514;2023-03-09T18:31:22;0.00;99.90
41427;DHT22;27171;51.812;19.514;2023-03-09T18:34:23;0.00;99.90
41427;DHT22;27171;51.812;19.514;2023-03-09T18:37:25;0.00;99.90
41427;DHT22;27171;51.812;19.514;2023-03-09T18:40:26;0.00;99.90
41427;DHT22;27171;51.812;19.514;2023-03-09T18:43:28;0.00;99.90
41427;DHT22;27171;51.812;19.514;2023-03-09T18:46:29;-0.10;99.90
41427;DHT22;27171;51.812;19.514;2023-03-09T18:49:30;-0.10;99.90
41427;DHT22;27171;51.812;19.514;2023-03-09T18:52:31;-0.10;99.90
41427;DHT22;27171;51.812;19.514;2023-03-09T18:55:32;-0.10;99.90
41427;DHT22;27171;51.812;19.514;2023-03-09T18:58:34;-0.10;99.90
41427;DHT22;27171;51.812;19.514;2023-03-09T19:01:35;-0.10;99.90
41427;DHT22;27171;51.812;19.514;2023-03-09T19:04:36;-0.10;99.90
41427;DHT22;27171;51.812;19.514;2023-03-09T19:07:37;-0.10;99.90
41427;DHT22;27171;51.812;19.514;2023-03-09T19:10:39;-0.20;99.90
41427;DHT22;27171;51.812;19.514;2023-03-09T19:13:40;-0.20;99.90
41427;DHT22;27171;51.812;19.514;2023-03-09T19:16:42;-0.20;99.90
41427;DHT22;27171;51.812;19.514;2023-03-09T19:19:43;-0.20;99.90
41427;DHT22;27171;51.812;19.514;2023-03-09T19:22:45;-0.20;99.90
41427;DHT22;27171;51.812;19.514;2023-03-09T19:25:56;-0.20;99.90
41427;DHT22;27171;51.812;19.514;2023-03-09T19:28:57;-0.20;99.90
41427;DHT22;27171;51.812;19.514;2023-03-09T19:31:59;-0.20;99.90
41427;DHT22;27171;51.812;19.514;2023-03-09T19:35:00;-0.20;99.90
41427;DHT22;27171;51.812;19.514;2023-03-09T19:38:01;-0.20;99.90
41427;DHT22;27171;51.812;19.514;2023-03-09T19:41:04;-0.20;99.90
41427;DHT22;27171;51.812;19.514;2023-03-09T19:44:07;-0.20;99.90
41427;DHT22;27171;51.812;19.514;2023-03-09T19:47:08;-0.20;99.90
41427;DHT22;27171;51.812;19.514;2023-03-09T19:50:10;-0.20;99.90
41427;DHT22;27171;51.812;19.514;2023-03-09T19:53:11;-0.20;99.90
41427;DHT22;27171;51.812;19.514;2023-03-09T19:56:14;-0.20;99.90
41427;DHT22;27171;51.812;19.514;2023-03-09T19:59:16;-0.20;99.90
41427;DHT22;27171;51.812;19.514;2023-03-09T20:02:17;-0.20;99.90
41427;DHT22;27171;51.812;19.514;2023-03-09T20:05:18;-0.20;99.90
41427;DHT22;27171;51.812;19.514;2023-03-09T20:08:20;-0.20;99.90
41427;DHT22;27171;51.812;19.514;2023-03-09T20:11:21;-0.20;99.90
41427;DHT22;27171;51.812;19.514;2023-03-09T20:14:23;-0.20;99.90
41427;DHT22;27171;51.812;19.514;2023-03-09T20:17:24;-0.20;99.90
41427;DHT22;27171;51.812;19.514;2023-03-09T20:20:25;-0.10;99.90
41427;DHT22;27171;51.812;19.514;2023-03-09T20:23:26;-0.10;99.90
41427;DHT22;27171;51.812;19.514;2023-03-09T20:26:30;-0.20;99.90
41427;DHT22;27171;51.812;19.514;2023-03-09T20:29:32;-0.10;99.90
41427;DHT22;27171;51.812;19.514;2023-03-09T20:32:33;-0.10;99.90
41427;DHT22;27171;51.812;19.514;2023-03-09T20:35:34;-0.10;99.90